KCHS/CHS METAR and TAF weather

Enter ICAO airport designator
Station Type Date Time Source
KCHS METAR 2020/12/06 00:56 UTC NOAA

KCHS 060056Z 32004KT 10SM CLR 07/04 A3004 RMK AO2 SLP171 T00670039


Station Type Date Time Source
KCHS Decoded METAR 2020/12/06 00:56 UTC NOAA

CHARLESTON INT'L AIRPORT, SC, United States (KCHS) 32-54N 080-02W 13M
Dec 05, 2020 - 07:56 PM EST / 2020.12.06 0056 UTC
Wind: from the NW (320 degrees) at 5 MPH (4 KT):0
Visibility: 10 mile(s):0
Sky conditions: clear
Temperature: 44.1 F (6.7 C)
Dew Point: 39.0 F (3.9 C)
Relative Humidity: 82%
Pressure (altimeter): 30.04 in. Hg (1017 hPa)
ob: KCHS 060056Z 32004KT 10SM CLR 07/04 A3004 RMK AO2 SLP171 T00670039
cycle: 1

Station Type Date Time Source
KCHS TAF 2020/12/05 18:31 UTC NOAA

TAF KCHS 051726Z 0518/0618 30008KT P6SM SKC
FM060000 VRB03KT P6SM SKC

Example: see airport list